sensor_id;sensor_type;location;lat;lon;timestamp;P1;durP1;ratioP1;P2;durP2;ratioP2
4933;SDS011;2482;49.154;8.254;2023-04-05T00:00:32;5.30;;;4.57;;
4933;SDS011;2482;49.154;8.254;2023-04-05T00:02:59;7.00;;;5.03;;
4933;SDS011;2482;49.154;8.254;2023-04-05T00:05:27;8.53;;;5.60;;
4933;SDS011;2482;49.154;8.254;2023-04-05T00:07:59;6.40;;;5.17;;
4933;SDS011;2482;49.154;8.254;2023-04-05T00:10:29;9.70;;;5.50;;
4933;SDS011;2482;49.154;8.254;2023-04-05T00:12:57;5.67;;;4.30;;
4933;SDS011;2482;49.154;8.254;2023-04-05T00:15:24;9.13;;;4.97;;
4933;SDS011;2482;49.154;8.254;2023-04-05T00:17:54;6.17;;;5.07;;
4933;SDS011;2482;49.154;8.254;2023-04-05T00:20:21;5.73;;;5.13;;
4933;SDS011;2482;49.154;8.254;2023-04-05T00:22:48;5.40;;;4.63;;
4933;SDS011;2482;49.154;8.254;2023-04-05T00:25:16;7.50;;;5.17;;
4933;SDS011;2482;49.154;8.254;2023-04-05T00:27:44;7.07;;;4.97;;
4933;SDS011;2482;49.154;8.254;2023-04-05T00:30:11;7.70;;;4.77;;
4933;SDS011;2482;49.154;8.254;2023-04-05T00:32:40;6.03;;;4.50;;
4933;SDS011;2482;49.154;8.254;2023-04-05T00:35:07;5.63;;;4.40;;
4933;SDS011;2482;49.154;8.254;2023-04-05T00:37:34;6.17;;;5.20;;
4933;SDS011;2482;49.154;8.254;2023-04-05T00:40:01;6.10;;;4.57;;
4933;SDS011;2482;49.154;8.254;2023-04-05T00:42:29;5.80;;;4.40;;
4933;SDS011;2482;49.154;8.254;2023-04-05T00:44:57;5.70;;;4.20;;
4933;SDS011;2482;49.154;8.254;2023-04-05T00:47:24;5.73;;;4.43;;
4933;SDS011;2482;49.154;8.254;2023-04-05T00:49:51;10.30;;;5.13;;
4933;SDS011;2482;49.154;8.254;2023-04-05T00:52:18;9.07;;;4.57;;
4933;SDS011;2482;49.154;8.254;2023-04-05T00:54:48;5.47;;;4.87;;
4933;SDS011;2482;49.154;8.254;2023-04-05T00:57:18;8.00;;;4.27;;
4933;SDS011;2482;49.154;8.254;2023-04-05T00:59:45;10.17;;;4.63;;
4933;SDS011;2482;49.154;8.254;2023-04-05T01:02:15;7.63;;;4.23;;
4933;SDS011;2482;49.154;8.254;2023-04-05T01:04:52;4.60;;;4.20;;
4933;SDS011;2482;49.154;8.254;2023-04-05T01:07:31;5.17;;;4.37;;
4933;SDS011;2482;49.154;8.254;2023-04-05T01:10:10;6.00;;;4.70;;
4933;SDS011;2482;49.154;8.254;2023-04-05T01:12:39;5.03;;;4.20;;
4933;SDS011;2482;49.154;8.254;2023-04-05T01:15:07;5.23;;;4.17;;
4933;SDS011;2482;49.154;8.254;2023-04-05T01:17:35;6.47;;;4.50;;
4933;SDS011;2482;49.154;8.254;2023-04-05T01:20:05;5.90;;;4.47;;
4933;SDS011;2482;49.154;8.254;2023-04-05T01:22:44;4.70;;;4.30;;
4933;SDS011;2482;49.154;8.254;2023-04-05T01:25:35;5.60;;;4.47;;
4933;SDS011;2482;49.154;8.254;2023-04-05T01:28:30;7.30;;;4.50;;
4933;SDS011;2482;49.154;8.254;2023-04-05T01:37:19;8.00;;;4.00;;
4933;SDS011;2482;49.154;8.254;2023-04-05T01:39:52;7.70;;;4.60;;
4933;SDS011;2482;49.154;8.254;2023-04-05T01:42:24;4.97;;;4.13;;
4933;SDS011;2482;49.154;8.254;2023-04-05T01:44:52;10.37;;;4.63;;
4933;SDS011;2482;49.154;8.254;2023-04-05T01:47:20;7.63;;;4.17;;
4933;SDS011;2482;49.154;8.254;2023-04-05T01:49:48;5.43;;;4.23;;
4933;SDS011;2482;49.154;8.254;2023-04-05T01:52:15;7.03;;;4.93;;
4933;SDS011;2482;49.154;8.254;2023-04-05T01:54:42;9.93;;;4.40;;
4933;SDS011;2482;49.154;8.254;2023-04-05T01:57:09;11.40;;;4.60;;
4933;SDS011;2482;49.154;8.254;2023-04-05T01:59:36;10.10;;;5.30;;
4933;SDS011;2482;49.154;8.254;2023-04-05T02:02:03;5.13;;;4.67;;
4933;SDS011;2482;49.154;8.254;2023-04-05T02:04:32;5.90;;;4.87;;
4933;SDS011;2482;49.154;8.254;2023-04-05T02:06:59;5.87;;;4.10;;
4933;SDS011;2482;49.154;8.254;2023-04-05T02:09:26;5.60;;;4.00;;
4933;SDS011;2482;49.154;8.254;2023-04-05T02:11:54;6.07;;;4.13;;
4933;SDS011;2482;49.154;8.254;2023-04-05T02:14:22;7.03;;;4.60;;
4933;SDS011;2482;49.154;8.254;2023-04-05T02:16:50;5.20;;;4.17;;
4933;SDS011;2482;49.154;8.254;2023-04-05T02:19:22;7.47;;;5.33;;
4933;SDS011;2482;49.154;8.254;2023-04-05T02:21:49;5.60;;;4.50;;
4933;SDS011;2482;49.154;8.254;2023-04-05T02:24:19;8.60;;;5.07;;
4933;SDS011;2482;49.154;8.254;2023-04-05T02:26:46;9.30;;;5.10;;
4933;SDS011;2482;49.154;8.254;2023-04-05T02:29:13;5.03;;;4.13;;
4933;SDS011;2482;49.154;8.254;2023-04-05T02:31:40;6.07;;;4.00;;
4933;SDS011;2482;49.154;8.254;2023-04-05T02:34:07;4.97;;;4.10;;
4933;SDS011;2482;49.154;8.254;2023-04-05T02:36:36;5.80;;;4.43;;
4933;SDS011;2482;49.154;8.254;2023-04-05T02:39:03;5.10;;;4.60;;
4933;SDS011;2482;49.154;8.254;2023-04-05T02:41:30;8.20;;;4.40;;
4933;SDS011;2482;49.154;8.254;2023-04-05T02:43:57;5.37;;;3.93;;
4933;SDS011;2482;49.154;8.254;2023-04-05T02:46:25;6.33;;;4.73;;
4933;SDS011;2482;49.154;8.254;2023-04-05T02:48:52;7.17;;;4.97;;
4933;SDS011;2482;49.154;8.254;2023-04-05T02:51:19;5.40;;;4.43;;
4933;SDS011;2482;49.154;8.254;2023-04-05T02:53:46;6.10;;;4.33;;
4933;SDS011;2482;49.154;8.254;2023-04-05T02:56:13;4.43;;;3.90;;
4933;SDS011;2482;49.154;8.254;2023-04-05T03:01:11;4.13;;;3.77;;
4933;SDS011;2482;49.154;8.254;2023-04-05T03:03:38;8.00;;;4.23;;
4933;SDS011;2482;49.154;8.254;2023-04-05T03:06:06;7.97;;;4.63;;
4933;SDS011;2482;49.154;8.254;2023-04-05T03:08:40;5.40;;;4.27;;
4933;SDS011;2482;49.154;8.254;2023-04-05T03:11:09;7.00;;;3.77;;
4933;SDS011;2482;49.154;8.254;2023-04-05T03:13:38;5.53;;;4.20;;
4933;SDS011;2482;49.154;8.254;2023-04-05T03:16:05;6.33;;;4.00;;
4933;SDS011;2482;49.154;8.254;2023-04-05T03:18:33;7.83;;;4.00;;
4933;SDS011;2482;49.154;8.254;2023-04-05T03:21:00;4.73;;;4.23;;
4933;SDS011;2482;49.154;8.254;2023-04-05T03:23:28;5.33;;;4.20;;
4933;SDS011;2482;49.154;8.254;2023-04-05T03:28:28;6.00;;;3.83;;
4933;SDS011;2482;49.154;8.254;2023-04-05T03:30:59;6.60;;;3.93;;
4933;SDS011;2482;49.154;8.254;2023-04-05T03:33:26;5.27;;;3.77;;
4933;SDS011;2482;49.154;8.254;2023-04-05T03:35:53;4.80;;;3.97;;
4933;SDS011;2482;49.154;8.254;2023-04-05T03:38:20;4.83;;;3.70;;
4933;SDS011;2482;49.154;8.254;2023-04-05T03:40:47;7.17;;;4.07;;
4933;SDS011;2482;49.154;8.254;2023-04-05T03:43:14;5.57;;;4.27;;
4933;SDS011;2482;49.154;8.254;2023-04-05T03:45:42;5.90;;;4.13;;
4933;SDS011;2482;49.154;8.254;2023-04-05T03:48:09;5.87;;;4.03;;
4933;SDS011;2482;49.154;8.254;2023-04-05T03:50:36;4.27;;;3.87;;
4933;SDS011;2482;49.154;8.254;2023-04-05T03:53:03;6.27;;;4.27;;
4933;SDS011;2482;49.154;8.254;2023-04-05T03:55:30;5.07;;;3.60;;
4933;SDS011;2482;49.154;8.254;2023-04-05T03:57:57;7.20;;;3.53;;
4933;SDS011;2482;49.154;8.254;2023-04-05T04:00:24;4.90;;;3.47;;
4933;SDS011;2482;49.154;8.254;2023-04-05T04:02:51;6.13;;;3.77;;
4933;SDS011;2482;49.154;8.254;2023-04-05T04:05:19;7.43;;;3.67;;
4933;SDS011;2482;49.154;8.254;2023-04-05T04:07:47;6.60;;;4.17;;
4933;SDS011;2482;49.154;8.254;2023-04-05T04:10:14;5.97;;;3.50;;
4933;SDS011;2482;49.154;8.254;2023-04-05T04:12:45;4.17;;;3.77;;
4933;SDS011;2482;49.154;8.254;2023-04-05T04:15:12;7.27;;;4.30;;
4933;SDS011;2482;49.154;8.254;2023-04-05T04:17:39;7.23;;;3.80;;
4933;SDS011;2482;49.154;8.254;2023-04-05T04:20:06;6.03;;;3.80;;
4933;SDS011;2482;49.154;8.254;2023-04-05T04:22:37;7.20;;;4.23;;
4933;SDS011;2482;49.154;8.254;2023-04-05T04:25:09;4.33;;;3.73;;
4933;SDS011;2482;49.154;8.254;2023-04-05T04:27:39;3.90;;;3.50;;
4933;SDS011;2482;49.154;8.254;2023-04-05T04:30:08;5.13;;;4.33;;
4933;SDS011;2482;49.154;8.254;2023-04-05T04:32:38;5.27;;;3.70;;
4933;SDS011;2482;49.154;8.254;2023-04-05T04:35:17;4.43;;;4.03;;
4933;SDS011;2482;49.154;8.254;2023-04-05T04:40:28;3.57;;;3.27;;
4933;SDS011;2482;49.154;8.254;2023-04-05T04:43:04;5.20;;;3.70;;
4933;SDS011;2482;49.154;8.254;2023-04-05T04:45:32;4.20;;;3.67;;
4933;SDS011;2482;49.154;8.254;2023-04-05T04:48:00;8.10;;;4.30;;
4933;SDS011;2482;49.154;8.254;2023-04-05T04:50:30;6.47;;;3.63;;
4933;SDS011;2482;49.154;8.254;2023-04-05T04:52:58;5.77;;;4.20;;
4933;SDS011;2482;49.154;8.254;2023-04-05T04:55:27;4.50;;;3.90;;
4933;SDS011;2482;49.154;8.254;2023-04-05T04:57:54;5.63;;;4.10;;
4933;SDS011;2482;49.154;8.254;2023-04-05T05:00:22;7.33;;;3.50;;
4933;SDS011;2482;49.154;8.254;2023-04-05T05:02:50;4.40;;;3.80;;
4933;SDS011;2482;49.154;8.254;2023-04-05T05:05:18;5.80;;;4.23;;
4933;SDS011;2482;49.154;8.254;2023-04-05T05:07:48;5.60;;;4.10;;
4933;SDS011;2482;49.154;8.254;2023-04-05T05:10:18;11.53;;;4.53;;
4933;SDS011;2482;49.154;8.254;2023-04-05T05:12:47;4.70;;;3.77;;
4933;SDS011;2482;49.154;8.254;2023-04-05T05:15:14;8.07;;;4.90;;
4933;SDS011;2482;49.154;8.254;2023-04-05T05:17:41;7.13;;;4.60;;
4933;SDS011;2482;49.154;8.254;2023-04-05T05:20:08;9.73;;;4.87;;
4933;SDS011;2482;49.154;8.254;2023-04-05T05:22:37;7.13;;;4.10;;
4933;SDS011;2482;49.154;8.254;2023-04-05T05:25:05;7.23;;;4.20;;
4933;SDS011;2482;49.154;8.254;2023-04-05T05:27:33;11.37;;;4.60;;
4933;SDS011;2482;49.154;8.254;2023-04-05T05:30:01;5.70;;;4.20;;
4933;SDS011;2482;49.154;8.254;2023-04-05T05:32:28;5.57;;;5.03;;
4933;SDS011;2482;49.154;8.254;2023-04-05T05:34:55;5.10;;;4.20;;
4933;SDS011;2482;49.154;8.254;2023-04-05T05:37:30;5.03;;;3.90;;
4933;SDS011;2482;49.154;8.254;2023-04-05T05:39:58;7.07;;;4.57;;
4933;SDS011;2482;49.154;8.254;2023-04-05T05:42:26;6.40;;;4.17;;
4933;SDS011;2482;49.154;8.254;2023-04-05T05:44:53;8.97;;;5.20;;
4933;SDS011;2482;49.154;8.254;2023-04-05T05:47:20;5.53;;;5.00;;
4933;SDS011;2482;49.154;8.254;2023-04-05T05:49:47;7.13;;;4.70;;
4933;SDS011;2482;49.154;8.254;2023-04-05T05:52:17;7.87;;;5.47;;
4933;SDS011;2482;49.154;8.254;2023-04-05T05:54:43;5.07;;;4.57;;
4933;SDS011;2482;49.154;8.254;2023-04-05T05:57:12;6.23;;;4.87;;
4933;SDS011;2482;49.154;8.254;2023-04-05T05:59:41;6.80;;;4.83;;
4933;SDS011;2482;49.154;8.254;2023-04-05T06:02:08;6.20;;;4.37;;
4933;SDS011;2482;49.154;8.254;2023-04-05T06:04:35;7.00;;;4.87;;
4933;SDS011;2482;49.154;8.254;2023-04-05T06:07:03;5.63;;;5.03;;
4933;SDS011;2482;49.154;8.254;2023-04-05T06:09:30;7.27;;;4.20;;
4933;SDS011;2482;49.154;8.254;2023-04-05T06:12:00;7.73;;;5.30;;
4933;SDS011;2482;49.154;8.254;2023-04-05T06:14:28;6.00;;;5.40;;
4933;SDS011;2482;49.154;8.254;2023-04-05T06:16:55;9.07;;;4.87;;
4933;SDS011;2482;49.154;8.254;2023-04-05T06:19:23;5.20;;;4.70;;
4933;SDS011;2482;49.154;8.254;2023-04-05T06:21:49;8.20;;;4.60;;
4933;SDS011;2482;49.154;8.254;2023-04-05T06:24:16;8.20;;;5.07;;
4933;SDS011;2482;49.154;8.254;2023-04-05T06:26:43;8.00;;;5.00;;
4933;SDS011;2482;49.154;8.254;2023-04-05T06:29:10;10.50;;;5.77;;
4933;SDS011;2482;49.154;8.254;2023-04-05T06:31:38;8.20;;;5.50;;
4933;SDS011;2482;49.154;8.254;2023-04-05T06:34:06;9.57;;;5.70;;
4933;SDS011;2482;49.154;8.254;2023-04-05T06:36:33;6.90;;;5.27;;
4933;SDS011;2482;49.154;8.254;2023-04-05T06:39:01;12.77;;;5.43;;
4933;SDS011;2482;49.154;8.254;2023-04-05T06:41:28;6.33;;;5.37;;
4933;SDS011;2482;49.154;8.254;2023-04-05T06:43:55;7.40;;;5.70;;
4933;SDS011;2482;49.154;8.254;2023-04-05T06:46:22;6.60;;;5.47;;
4933;SDS011;2482;49.154;8.254;2023-04-05T06:48:50;8.67;;;5.73;;
4933;SDS011;2482;49.154;8.254;2023-04-05T06:51:18;8.10;;;5.80;;
4933;SDS011;2482;49.154;8.254;2023-04-05T06:53:46;6.13;;;5.03;;
4933;SDS011;2482;49.154;8.254;2023-04-05T06:56:13;5.87;;;4.90;;
4933;SDS011;2482;49.154;8.254;2023-04-05T06:58:39;8.17;;;6.10;;
4933;SDS011;2482;49.154;8.254;2023-04-05T07:01:06;7.27;;;5.40;;
4933;SDS011;2482;49.154;8.254;2023-04-05T07:03:34;5.33;;;4.83;;
4933;SDS011;2482;49.154;8.254;2023-04-05T07:06:01;8.20;;;5.90;;
4933;SDS011;2482;49.154;8.254;2023-04-05T07:08:30;6.33;;;5.07;;
4933;SDS011;2482;49.154;8.254;2023-04-05T07:10:58;9.20;;;5.40;;
4933;SDS011;2482;49.154;8.254;2023-04-05T07:13:25;6.67;;;4.80;;
4933;SDS011;2482;49.154;8.254;2023-04-05T07:15:58;6.90;;;5.33;;
4933;SDS011;2482;49.154;8.254;2023-04-05T07:18:26;11.90;;;5.60;;
4933;SDS011;2482;49.154;8.254;2023-04-05T07:20:55;6.30;;;5.10;;
4933;SDS011;2482;49.154;8.254;2023-04-05T07:23:27;6.97;;;5.07;;
4933;SDS011;2482;49.154;8.254;2023-04-05T07:25:59;6.10;;;5.13;;
4933;SDS011;2482;49.154;8.254;2023-04-05T07:28:31;6.90;;;5.30;;
4933;SDS011;2482;49.154;8.254;2023-04-05T07:31:01;8.63;;;5.17;;
4933;SDS011;2482;49.154;8.254;2023-04-05T07:33:29;6.47;;;4.77;;
4933;SDS011;2482;49.154;8.254;2023-04-05T07:35:56;6.67;;;4.57;;
4933;SDS011;2482;49.154;8.254;2023-04-05T07:38:25;6.23;;;4.23;;
4933;SDS011;2482;49.154;8.254;2023-04-05T07:40:52;5.83;;;4.67;;
4933;SDS011;2482;49.154;8.254;2023-04-05T07:43:19;5.60;;;4.27;;
4933;SDS011;2482;49.154;8.254;2023-04-05T07:45:46;4.93;;;4.23;;
4933;SDS011;2482;49.154;8.254;2023-04-05T07:48:13;7.93;;;5.00;;
4933;SDS011;2482;49.154;8.254;2023-04-05T07:50:41;8.10;;;4.70;;
4933;SDS011;2482;49.154;8.254;2023-04-05T07:53:13;5.93;;;4.13;;
4933;SDS011;2482;49.154;8.254;2023-04-05T07:55:41;6.20;;;4.80;;
4933;SDS011;2482;49.154;8.254;2023-04-05T07:58:08;9.93;;;4.73;;
4933;SDS011;2482;49.154;8.254;2023-04-05T08:00:36;5.60;;;5.00;;
4933;SDS011;2482;49.154;8.254;2023-04-05T08:03:03;5.50;;;5.00;;
4933;SDS011;2482;49.154;8.254;2023-04-05T08:05:31;8.77;;;4.57;;
4933;SDS011;2482;49.154;8.254;2023-04-05T08:07:58;5.67;;;5.17;;
4933;SDS011;2482;49.154;8.254;2023-04-05T08:10:25;9.00;;;5.10;;
4933;SDS011;2482;49.154;8.254;2023-04-05T08:12:52;7.10;;;4.80;;
4933;SDS011;2482;49.154;8.254;2023-04-05T08:15:19;9.30;;;6.50;;
4933;SDS011;2482;49.154;8.254;2023-04-05T08:17:47;8.43;;;5.93;;
4933;SDS011;2482;49.154;8.254;2023-04-05T08:20:14;6.00;;;4.90;;
4933;SDS011;2482;49.154;8.254;2023-04-05T08:22:42;5.63;;;4.47;;
4933;SDS011;2482;49.154;8.254;2023-04-05T08:25:09;7.00;;;3.97;;
4933;SDS011;2482;49.154;8.254;2023-04-05T08:27:37;6.20;;;4.23;;
4933;SDS011;2482;49.154;8.254;2023-04-05T08:30:04;4.97;;;4.20;;
4933;SDS011;2482;49.154;8.254;2023-04-05T08:32:34;4.27;;;3.87;;
4933;SDS011;2482;49.154;8.254;2023-04-05T08:35:01;4.57;;;3.93;;
4933;SDS011;2482;49.154;8.254;2023-04-05T08:37:32;5.50;;;3.97;;
4933;SDS011;2482;49.154;8.254;2023-04-05T08:40:02;8.17;;;4.17;;
4933;SDS011;2482;49.154;8.254;2023-04-05T08:42:45;5.00;;;4.00;;
4933;SDS011;2482;49.154;8.254;2023-04-05T08:45:18;7.13;;;3.67;;
4933;SDS011;2482;49.154;8.254;2023-04-05T08:47:47;4.97;;;3.50;;
4933;SDS011;2482;49.154;8.254;2023-04-05T08:50:18;6.10;;;3.97;;
4933;SDS011;2482;49.154;8.254;2023-04-05T08:52:45;3.90;;;3.57;;
4933;SDS011;2482;49.154;8.254;2023-04-05T08:55:15;6.20;;;3.80;;
4933;SDS011;2482;49.154;8.254;2023-04-05T08:57:43;4.50;;;3.53;;
4933;SDS011;2482;49.154;8.254;2023-04-05T09:00:16;5.87;;;4.30;;
4933;SDS011;2482;49.154;8.254;2023-04-05T09:02:46;9.60;;;3.83;;
4933;SDS011;2482;49.154;8.254;2023-04-05T09:05:16;5.07;;;3.83;;
4933;SDS011;2482;49.154;8.254;2023-04-05T09:07:46;5.00;;;3.87;;
4933;SDS011;2482;49.154;8.254;2023-04-05T09:10:13;3.93;;;3.53;;
4933;SDS011;2482;49.154;8.254;2023-04-05T09:12:44;6.00;;;3.73;;
4933;SDS011;2482;49.154;8.254;2023-04-05T09:15:11;6.10;;;4.13;;
4933;SDS011;2482;49.154;8.254;2023-04-05T09:17:40;7.80;;;3.77;;
4933;SDS011;2482;49.154;8.254;2023-04-05T09:20:08;4.80;;;4.07;;
4933;SDS011;2482;49.154;8.254;2023-04-05T09:22:45;9.03;;;3.90;;
4933;SDS011;2482;49.154;8.254;2023-04-05T09:28:07;7.27;;;3.93;;
4933;SDS011;2482;49.154;8.254;2023-04-05T09:30:35;5.83;;;4.30;;
4933;SDS011;2482;49.154;8.254;2023-04-05T09:33:03;4.57;;;3.70;;
4933;SDS011;2482;49.154;8.254;2023-04-05T09:35:35;5.43;;;3.63;;
4933;SDS011;2482;49.154;8.254;2023-04-05T09:38:03;6.80;;;4.20;;
4933;SDS011;2482;49.154;8.254;2023-04-05T09:40:43;6.37;;;4.07;;
4933;SDS011;2482;49.154;8.254;2023-04-05T09:43:12;4.97;;;3.70;;
4933;SDS011;2482;49.154;8.254;2023-04-05T09:46:03;8.10;;;4.10;;
4933;SDS011;2482;49.154;8.254;2023-04-05T09:48:48;4.90;;;3.50;;
4933;SDS011;2482;49.154;8.254;2023-04-05T09:51:17;6.27;;;4.90;;
4933;SDS011;2482;49.154;8.254;2023-04-05T09:56:35;5.10;;;4.20;;
4933;SDS011;2482;49.154;8.254;2023-04-05T09:59:11;4.50;;;3.90;;
4933;SDS011;2482;49.154;8.254;2023-04-05T10:01:38;4.27;;;3.80;;
4933;SDS011;2482;49.154;8.254;2023-04-05T10:04:09;5.37;;;3.70;;
4933;SDS011;2482;49.154;8.254;2023-04-05T10:06:40;5.17;;;4.03;;
4933;SDS011;2482;49.154;8.254;2023-04-05T10:09:09;4.30;;;3.77;;
4933;SDS011;2482;49.154;8.254;2023-04-05T10:11:37;6.40;;;4.23;;
4933;SDS011;2482;49.154;8.254;2023-04-05T10:14:05;6.27;;;4.37;;
4933;SDS011;2482;49.154;8.254;2023-04-05T10:16:43;7.10;;;4.10;;
4933;SDS011;2482;49.154;8.254;2023-04-05T10:31:01;5.43;;;4.30;;
4933;SDS011;2482;49.154;8.254;2023-04-05T10:34:03;5.67;;;4.70;;
4933;SDS011;2482;49.154;8.254;2023-04-05T10:39:46;6.10;;;4.47;;
4933;SDS011;2482;49.154;8.254;2023-04-05T10:42:20;5.03;;;4.30;;
4933;SDS011;2482;49.154;8.254;2023-04-05T10:44:55;8.83;;;4.40;;
4933;SDS011;2482;49.154;8.254;2023-04-05T10:47:30;4.50;;;4.10;;
4933;SDS011;2482;49.154;8.254;2023-04-05T10:50:04;5.67;;;4.20;;
4933;SDS011;2482;49.154;8.254;2023-04-05T10:52:35;6.33;;;4.93;;
4933;SDS011;2482;49.154;8.254;2023-04-05T10:55:04;4.47;;;4.00;;
4933;SDS011;2482;49.154;8.254;2023-04-05T10:57:32;10.07;;;4.60;;
4933;SDS011;2482;49.154;8.254;2023-04-05T11:00:00;6.20;;;4.40;;
4933;SDS011;2482;49.154;8.254;2023-04-05T11:02:28;5.70;;;4.83;;
4933;SDS011;2482;49.154;8.254;2023-04-05T11:04:56;6.23;;;4.70;;
4933;SDS011;2482;49.154;8.254;2023-04-05T11:07:43;5.77;;;4.37;;
4933;SDS011;2482;49.154;8.254;2023-04-05T11:10:17;6.37;;;4.43;;
4933;SDS011;2482;49.154;8.254;2023-04-05T11:20:53;6.57;;;4.70;;
4933;SDS011;2482;49.154;8.254;2023-04-05T11:23:31;11.30;;;4.77;;
4933;SDS011;2482;49.154;8.254;2023-04-05T11:26:04;5.97;;;4.20;;
4933;SDS011;2482;49.154;8.254;2023-04-05T11:28:36;6.00;;;3.90;;
4933;SDS011;2482;49.154;8.254;2023-04-05T11:31:17;5.53;;;4.57;;
4933;SDS011;2482;49.154;8.254;2023-04-05T11:36:29;5.50;;;4.10;;
4933;SDS011;2482;49.154;8.254;2023-04-05T11:41:56;6.60;;;4.73;;
4933;SDS011;2482;49.154;8.254;2023-04-05T11:44:51;5.40;;;4.23;;
4933;SDS011;2482;49.154;8.254;2023-04-05T11:47:19;8.60;;;4.43;;
4933;SDS011;2482;49.154;8.254;2023-04-05T11:49:50;9.60;;;5.00;;
4933;SDS011;2482;49.154;8.254;2023-04-05T11:52:18;7.20;;;4.70;;
4933;SDS011;2482;49.154;8.254;2023-04-05T11:54:46;5.83;;;4.80;;
4933;SDS011;2482;49.154;8.254;2023-04-05T11:57:17;17.50;;;4.87;;
4933;SDS011;2482;49.154;8.254;2023-04-05T11:59:51;6.30;;;4.63;;
4933;SDS011;2482;49.154;8.254;2023-04-05T12:02:19;6.90;;;4.77;;
4933;SDS011;2482;49.154;8.254;2023-04-05T12:04:54;5.60;;;4.83;;
4933;SDS011;2482;49.154;8.254;2023-04-05T12:07:24;6.50;;;4.90;;
4933;SDS011;2482;49.154;8.254;2023-04-05T12:12:27;7.60;;;4.73;;
4933;SDS011;2482;49.154;8.254;2023-04-05T12:15:02;5.83;;;5.13;;
4933;SDS011;2482;49.154;8.254;2023-04-05T12:17:37;7.30;;;5.10;;
4933;SDS011;2482;49.154;8.254;2023-04-05T12:20:14;7.73;;;5.00;;
4933;SDS011;2482;49.154;8.254;2023-04-05T12:22:47;5.87;;;4.90;;
4933;SDS011;2482;49.154;8.254;2023-04-05T12:25:16;7.80;;;5.13;;
4933;SDS011;2482;49.154;8.254;2023-04-05T12:27:44;6.83;;;5.17;;
4933;SDS011;2482;49.154;8.254;2023-04-05T12:30:13;5.63;;;4.90;;
4933;SDS011;2482;49.154;8.254;2023-04-05T12:32:43;4.93;;;4.33;;
4933;SDS011;2482;49.154;8.254;2023-04-05T12:35:27;6.70;;;5.13;;
4933;SDS011;2482;49.154;8.254;2023-04-05T12:37:58;9.50;;;5.27;;
4933;SDS011;2482;49.154;8.254;2023-04-05T12:40:28;5.90;;;4.97;;
4933;SDS011;2482;49.154;8.254;2023-04-05T12:43:02;6.03;;;4.63;;
4933;SDS011;2482;49.154;8.254;2023-04-05T12:45:34;7.23;;;5.47;;
4933;SDS011;2482;49.154;8.254;2023-04-05T12:48:09;7.77;;;5.73;;
4933;SDS011;2482;49.154;8.254;2023-04-05T12:50:50;5.37;;;4.87;;
4933;SDS011;2482;49.154;8.254;2023-04-05T12:53:18;6.27;;;5.30;;
4933;SDS011;2482;49.154;8.254;2023-04-05T12:55:52;6.43;;;5.60;;
4933;SDS011;2482;49.154;8.254;2023-04-05T12:58:21;7.50;;;5.00;;
4933;SDS011;2482;49.154;8.254;2023-04-05T13:01:01;5.77;;;4.73;;
4933;SDS011;2482;49.154;8.254;2023-04-05T13:03:29;6.70;;;5.00;;
4933;SDS011;2482;49.154;8.254;2023-04-05T13:05:56;6.77;;;5.30;;
4933;SDS011;2482;49.154;8.254;2023-04-05T13:08:23;7.80;;;5.20;;
4933;SDS011;2482;49.154;8.254;2023-04-05T13:10:52;5.50;;;5.00;;
4933;SDS011;2482;49.154;8.254;2023-04-05T13:13:23;6.77;;;4.70;;
4933;SDS011;2482;49.154;8.254;2023-04-05T13:15:50;7.20;;;4.70;;
4933;SDS011;2482;49.154;8.254;2023-04-05T13:18:17;6.87;;;5.03;;
4933;SDS011;2482;49.154;8.254;2023-04-05T13:20:45;10.30;;;5.10;;
4933;SDS011;2482;49.154;8.254;2023-04-05T13:23:12;7.50;;;5.67;;
4933;SDS011;2482;49.154;8.254;2023-04-05T13:25:39;8.23;;;6.00;;
4933;SDS011;2482;49.154;8.254;2023-04-05T13:28:08;6.43;;;5.30;;
4933;SDS011;2482;49.154;8.254;2023-04-05T13:30:35;7.90;;;5.90;;
4933;SDS011;2482;49.154;8.254;2023-04-05T13:33:03;8.17;;;5.23;;
4933;SDS011;2482;49.154;8.254;2023-04-05T13:35:30;5.33;;;4.70;;
4933;SDS011;2482;49.154;8.254;2023-04-05T13:37:58;7.00;;;5.00;;
4933;SDS011;2482;49.154;8.254;2023-04-05T13:40:29;6.67;;;5.20;;
4933;SDS011;2482;49.154;8.254;2023-04-05T13:42:57;8.83;;;5.30;;
4933;SDS011;2482;49.154;8.254;2023-04-05T13:45:24;6.50;;;4.90;;
4933;SDS011;2482;49.154;8.254;2023-04-05T13:47:52;9.03;;;5.40;;
4933;SDS011;2482;49.154;8.254;2023-04-05T13:50:20;6.80;;;4.90;;
4933;SDS011;2482;49.154;8.254;2023-04-05T13:52:47;8.57;;;4.70;;
4933;SDS011;2482;49.154;8.254;2023-04-05T13:55:14;8.57;;;4.73;;
4933;SDS011;2482;49.154;8.254;2023-04-05T13:57:41;6.93;;;4.80;;
4933;SDS011;2482;49.154;8.254;2023-04-05T14:00:08;8.53;;;4.77;;
4933;SDS011;2482;49.154;8.254;2023-04-05T14:02:36;6.83;;;5.03;;
4933;SDS011;2482;49.154;8.254;2023-04-05T14:05:05;5.37;;;4.87;;
4933;SDS011;2482;49.154;8.254;2023-04-05T14:07:33;5.10;;;4.33;;
4933;SDS011;2482;49.154;8.254;2023-04-05T14:10:01;8.73;;;5.47;;
4933;SDS011;2482;49.154;8.254;2023-04-05T14:12:28;8.00;;;5.37;;
4933;SDS011;2482;49.154;8.254;2023-04-05T14:14:56;9.87;;;5.80;;
4933;SDS011;2482;49.154;8.254;2023-04-05T14:17:25;7.27;;;5.67;;
4933;SDS011;2482;49.154;8.254;2023-04-05T14:19:52;5.13;;;4.63;;
4933;SDS011;2482;49.154;8.254;2023-04-05T14:22:19;6.43;;;4.90;;
4933;SDS011;2482;49.154;8.254;2023-04-05T14:24:47;6.13;;;5.20;;
4933;SDS011;2482;49.154;8.254;2023-04-05T14:27:14;7.03;;;5.17;;
4933;SDS011;2482;49.154;8.254;2023-04-05T14:29:41;5.73;;;5.13;;
4933;SDS011;2482;49.154;8.254;2023-04-05T14:32:11;7.37;;;5.13;;
4933;SDS011;2482;49.154;8.254;2023-04-05T14:34:38;5.63;;;5.00;;
4933;SDS011;2482;49.154;8.254;2023-04-05T14:37:05;10.53;;;5.23;;
4933;SDS011;2482;49.154;8.254;2023-04-05T14:39:33;8.93;;;5.37;;
4933;SDS011;2482;49.154;8.254;2023-04-05T14:42:00;8.00;;;5.50;;
4933;SDS011;2482;49.154;8.254;2023-04-05T14:44:27;7.23;;;4.90;;
4933;SDS011;2482;49.154;8.254;2023-04-05T14:46:54;6.13;;;4.77;;
4933;SDS011;2482;49.154;8.254;2023-04-05T14:49:21;7.77;;;5.50;;
4933;SDS011;2482;49.154;8.254;2023-04-05T14:51:48;5.63;;;5.03;;
4933;SDS011;2482;49.154;8.254;2023-04-05T14:54:16;7.03;;;4.87;;
4933;SDS011;2482;49.154;8.254;2023-04-05T14:56:43;6.90;;;5.20;;
4933;SDS011;2482;49.154;8.254;2023-04-05T14:59:10;10.47;;;5.50;;
4933;SDS011;2482;49.154;8.254;2023-04-05T15:01:37;8.00;;;5.57;;
4933;SDS011;2482;49.154;8.254;2023-04-05T15:04:07;11.00;;;6.10;;
4933;SDS011;2482;49.154;8.254;2023-04-05T15:06:34;8.07;;;5.60;;
4933;SDS011;2482;49.154;8.254;2023-04-05T15:09:01;9.13;;;5.87;;
4933;SDS011;2482;49.154;8.254;2023-04-05T15:11:29;8.03;;;4.33;;
4933;SDS011;2482;49.154;8.254;2023-04-05T15:13:59;8.70;;;4.73;;
4933;SDS011;2482;49.154;8.254;2023-04-05T15:16:26;5.27;;;4.30;;
4933;SDS011;2482;49.154;8.254;2023-04-05T15:18:55;5.60;;;4.77;;
4933;SDS011;2482;49.154;8.254;2023-04-05T15:21:24;5.53;;;4.90;;
4933;SDS011;2482;49.154;8.254;2023-04-05T15:23:51;6.17;;;5.10;;
4933;SDS011;2482;49.154;8.254;2023-04-05T15:26:18;10.27;;;5.13;;
4933;SDS011;2482;49.154;8.254;2023-04-05T15:28:46;5.20;;;4.70;;
4933;SDS011;2482;49.154;8.254;2023-04-05T15:31:13;6.20;;;4.83;;
4933;SDS011;2482;49.154;8.254;2023-04-05T15:33:40;7.40;;;5.60;;
4933;SDS011;2482;49.154;8.254;2023-04-05T15:36:07;6.20;;;5.60;;
4933;SDS011;2482;49.154;8.254;2023-04-05T15:38:34;7.70;;;5.50;;
4933;SDS011;2482;49.154;8.254;2023-04-05T15:41:01;6.07;;;5.47;;
4933;SDS011;2482;49.154;8.254;2023-04-05T15:43:29;6.33;;;4.53;;
4933;SDS011;2482;49.154;8.254;2023-04-05T15:45:57;5.57;;;4.90;;
4933;SDS011;2482;49.154;8.254;2023-04-05T15:48:24;5.93;;;5.33;;
4933;SDS011;2482;49.154;8.254;2023-04-05T15:50:51;6.60;;;4.70;;
4933;SDS011;2482;49.154;8.254;2023-04-05T15:53:18;6.53;;;4.60;;
4933;SDS011;2482;49.154;8.254;2023-04-05T15:55:45;5.40;;;4.00;;
4933;SDS011;2482;49.154;8.254;2023-04-05T15:58:12;19.07;;;5.23;;
4933;SDS011;2482;49.154;8.254;2023-04-05T16:00:39;5.77;;;4.87;;
4933;SDS011;2482;49.154;8.254;2023-04-05T16:03:06;10.33;;;4.90;;
4933;SDS011;2482;49.154;8.254;2023-04-05T16:05:34;9.47;;;4.77;;
4933;SDS011;2482;49.154;8.254;2023-04-05T16:08:01;7.10;;;4.73;;
4933;SDS011;2482;49.154;8.254;2023-04-05T16:10:28;5.73;;;4.30;;
4933;SDS011;2482;49.154;8.254;2023-04-05T16:12:55;8.53;;;4.87;;
4933;SDS011;2482;49.154;8.254;2023-04-05T16:15:22;6.40;;;4.60;;
4933;SDS011;2482;49.154;8.254;2023-04-05T16:17:49;6.77;;;4.97;;